Time;durP1;ratioP1;P1;durP2;ratioP2;P2;SDS_P1;SDS_P2;PMS_P1;PMS_P2;Temp;Humidity;BMP_temperature;BMP_pressure;BME280_temperature;BME280_humidity;BME280_pressure;Samples;Min_cycle;Max_cycle;Signal;HPM_P1;HPM_P2
2022/05/31 00:02:12;;;;;;;4.28;3.15;;;7.90;99.90;;;;;;5096602;28;20048;-88
2022/05/31 00:05:01;;;;;;;3.03;2.35;;;7.80;99.90;;;;;;5097553;28;20135;-84
2022/05/31 00:07:48;;;;;;;5.20;2.60;;;7.80;99.90;;;;;;5087471;28;20122;-86
2022/05/31 00:10:36;;;;;;;3.60;2.80;;;7.80;99.90;;;;;;5087345;28;20142;-85
2022/05/31 00:13:26;;;;;;;6.35;3.30;;;7.70;99.90;;;;;;5084297;28;20067;-87
2022/05/31 00:16:13;;;;;;;4.93;3.00;;;7.70;99.90;;;;;;5095443;28;20121;-87
2022/05/31 00:19:00;;;;;;;5.68;3.30;;;7.60;99.90;;;;;;5080367;28;20097;-86
2022/05/31 00:21:50;;;;;;;5.00;2.88;;;7.40;99.90;;;;;;5107974;28;20040;-86
2022/05/31 00:24:39;;;;;;;5.30;2.58;;;7.30;99.90;;;;;;5096368;28;20448;-87
2022/05/31 00:27:28;;;;;;;4.80;3.25;;;7.30;99.90;;;;;;5081732;28;20579;-88
2022/05/31 00:30:16;;;;;;;12.63;3.67;;;7.20;99.90;;;;;;5088123;28;20120;-86
2022/05/31 00:33:10;;;;;;;4.90;3.50;;;7.10;99.90;;;;;;5103764;28;20054;-86
2022/05/31 00:35:57;;;;;;;3.72;3.10;;;7.00;99.90;;;;;;5111380;28;20044;-86
2022/05/31 00:38:44;;;;;;;5.80;3.83;;;7.00;99.90;;;;;;5087786;28;20052;-85
2022/05/31 00:41:33;;;;;;;7.40;3.50;;;6.90;99.90;;;;;;5092564;28;20048;-87
2022/05/31 00:44:26;;;;;;;5.22;3.45;;;6.90;99.90;;;;;;5109283;28;20105;-87
2022/05/31 00:47:15;;;;;;;4.20;3.67;;;6.80;99.90;;;;;;5085989;28;20041;-85
2022/05/31 00:50:18;;;;;;;4.70;3.17;;;6.80;99.90;;;;;;5110262;28;20048;-86
2022/05/31 00:53:09;;;;;;;;;;;6.80;99.90;;;;;;5113675;28;20032;-79
2022/05/31 00:56:01;;;;;;;3.65;3.00;;;6.80;99.90;;;;;;5115866;28;19979;-84
2022/05/31 00:59:05;;;;;;;9.25;4.03;;;6.70;99.90;;;;;;5106879;28;20040;-87
2022/05/31 01:01:56;;;;;;;6.57;3.63;;;6.70;99.90;;;;;;5098863;28;20078;-86
2022/05/31 01:05:04;;;;;;;5.68;3.75;;;6.70;99.90;;;;;;5093395;28;20064;-85
2022/05/31 01:07:52;;;;;;;4.55;3.25;;;6.70;99.90;;;;;;5095184;28;20055;-87
2022/05/31 01:10:41;;;;;;;5.22;3.75;;;6.70;99.90;;;;;;5088561;28;20040;-86
2022/05/31 01:13:29;;;;;;;14.48;3.60;;;6.60;99.90;;;;;;5094426;28;20036;-85
2022/05/31 01:16:19;;;;;;;6.32;3.88;;;6.70;99.90;;;;;;5100398;28;20329;-87
2022/05/31 01:19:55;;;;;;;4.13;3.45;;;6.70;99.90;;;;;;5093649;28;20059;-86
2022/05/31 01:22:19;;;;;;;6.10;3.60;;;6.70;99.90;;;;;;5095185;28;20127;-86
2022/05/31 01:25:22;;;;;;;5.40;3.53;;;6.60;99.90;;;;;;5094176;28;20156;-86
2022/05/31 01:28:13;;;;;;;3.53;3.15;;;6.60;99.90;;;;;;5084808;28;20048;-85
2022/05/31 01:31:19;;;;;;;7.20;3.30;;;6.60;99.90;;;;;;5096116;28;20116;-86
2022/05/31 01:34:11;;;;;;;8.45;3.88;;;6.60;99.90;;;;;;5099427;28;20048;-85
2022/05/31 01:36:59;;;;;;;4.50;3.85;;;6.60;99.90;;;;;;5092769;28;20504;-85
2022/05/31 01:39:58;;;;;;;8.27;4.30;;;6.60;99.90;;;;;;5094087;28;20099;-83
2022/05/31 01:42:49;;;;;;;7.03;3.67;;;6.70;99.90;;;;;;5105568;28;20092;-86
2022/05/31 01:45:43;;;;;;;5.93;3.42;;;6.80;99.90;;;;;;5092758;28;20393;-84
2022/05/31 01:48:34;;;;;;;5.03;3.20;;;6.90;99.90;;;;;;5095784;28;20047;-85
2022/05/31 01:51:22;;;;;;;8.10;3.97;;;6.90;99.90;;;;;;5095116;28;20372;-85
2022/05/31 01:54:12;;;;;;;3.30;2.97;;;7.00;99.90;;;;;;5089375;28;20047;-85
2022/05/31 01:57:03;;;;;;;4.10;3.08;;;7.00;99.90;;;;;;5109099;28;20060;-85
2022/05/31 02:00:00;;;;;;;3.88;3.28;;;7.00;99.90;;;;;;5100846;28;20070;-84
2022/05/31 02:02:51;;;;;;;4.22;3.50;;;6.90;99.90;;;;;;5116029;28;20064;-84
2022/05/31 02:05:50;;;;;;;5.07;3.88;;;6.90;99.90;;;;;;5104283;28;20075;-85
2022/05/31 02:08:39;;;;;;;8.95;4.22;;;6.80;99.90;;;;;;5091634;28;20064;-84
2022/05/31 02:11:27;;;;;;;6.60;3.70;;;6.70;99.90;;;;;;5099035;28;20084;-87
2022/05/31 02:14:14;;;;;;;5.38;3.80;;;6.70;99.90;;;;;;5090585;28;20112;-87
2022/05/31 02:17:02;;;;;;;7.20;4.22;;;6.60;99.90;;;;;;5096370;28;20048;-87
2022/05/31 02:19:49;;;;;;;5.78;3.70;;;6.60;99.90;;;;;;5089237;28;20053;-86
2022/05/31 02:22:36;;;;;;;5.70;4.35;;;6.50;99.90;;;;;;5095219;28;20427;-86
2022/05/31 02:25:23;;;;;;;6.63;4.00;;;6.40;99.90;;;;;;5099032;28;20129;-86
2022/05/31 02:28:11;;;;;;;5.25;4.05;;;6.30;99.90;;;;;;5082459;28;20083;-86
2022/05/31 02:31:00;;;;;;;7.65;3.97;;;6.30;99.90;;;;;;5103854;28;20059;-85
2022/05/31 02:33:47;;;;;;;7.25;3.92;;;6.30;99.90;;;;;;5093998;28;20097;-85
2022/05/31 02:36:35;;;;;;;3.67;3.17;;;6.20;99.90;;;;;;5111394;27;20192;-86
2022/05/31 02:39:22;;;;;;;5.13;4.00;;;6.20;99.90;;;;;;5094437;28;20044;-86
2022/05/31 02:42:13;;;;;;;6.05;3.45;;;6.30;99.90;;;;;;5091756;28;20109;-86
2022/05/31 02:45:00;;;;;;;6.60;3.70;;;6.40;99.90;;;;;;5082519;28;20055;-86
2022/05/31 02:47:48;;;;;;;7.35;3.80;;;6.50;99.90;;;;;;5094013;28;20071;-86
2022/05/31 02:50:39;;;;;;;5.57;4.18;;;6.50;99.90;;;;;;5100677;28;20133;-87
2022/05/31 02:53:29;;;;;;;6.85;3.95;;;6.50;99.90;;;;;;5081190;28;20119;-86
2022/05/31 02:56:16;;;;;;;4.50;3.85;;;6.30;99.90;;;;;;5095374;28;20076;-86
2022/05/31 02:59:09;;;;;;;4.30;3.80;;;6.20;99.90;;;;;;5094611;28;20036;-86
2022/05/31 03:01:57;;;;;;;7.63;4.45;;;6.10;99.90;;;;;;5083693;28;20090;-83
2022/05/31 03:04:46;;;;;;;7.57;4.60;;;6.00;99.90;;;;;;5091279;28;20048;-84
2022/05/31 03:07:34;;;;;;;7.45;4.07;;;6.00;99.90;;;;;;5077763;28;20059;-86
2022/05/31 03:10:21;;;;;;;5.28;4.30;;;6.00;99.90;;;;;;5090771;28;20047;-86
2022/05/31 03:13:09;;;;;;;6.90;4.25;;;6.00;99.90;;;;;;5077640;28;20094;-87
2022/05/31 03:16:01;;;;;;;5.82;4.25;;;5.90;99.90;;;;;;5094291;28;20174;-87
2022/05/31 03:19:01;;;;;;;6.57;4.40;;;6.10;99.90;;;;;;5065847;28;20044;-84
2022/05/31 03:21:57;;;;;;;6.65;4.20;;;6.20;99.90;;;;;;5091035;28;20503;-85
2022/05/31 03:25:01;;;;;;;4.55;3.92;;;6.20;99.90;;;;;;5081109;28;20216;-85
2022/05/31 03:27:52;;;;;;;5.65;4.43;;;6.30;99.90;;;;;;5097597;28;20178;-85
2022/05/31 03:30:42;;;;;;;7.15;4.40;;;6.30;99.90;;;;;;5088152;28;20040;-85
2022/05/31 03:33:29;;;;;;;7.78;4.68;;;6.20;99.90;;;;;;5100236;28;20125;-85
2022/05/31 03:36:16;;;;;;;6.57;4.38;;;6.20;99.90;;;;;;5083988;28;20047;-86
2022/05/31 03:39:06;;;;;;;6.40;4.32;;;6.20;99.90;;;;;;5091716;28;20664;-86
2022/05/31 03:41:54;;;;;;;5.05;4.50;;;6.20;99.90;;;;;;5090156;28;20044;-85
2022/05/31 03:44:48;;;;;;;9.82;5.07;;;6.20;99.90;;;;;;5076836;28;20152;-86
2022/05/31 03:47:39;;;;;;;9.57;5.38;;;6.20;99.90;;;;;;5079980;28;20074;-91
2022/05/31 04:20:18;;;;;;;6.78;3.25;;;6.30;99.90;;;;;;5500370;23;20095;-88
2022/05/31 04:26:11;;;;;;;6.30;4.50;;;6.50;99.90;;;;;;4981956;28;20218;-87
2022/05/31 04:28:58;;;;;;;6.53;4.72;;;6.60;99.90;;;;;;4992568;28;20050;-86
2022/05/31 04:31:51;;;;;;;8.25;4.82;;;6.50;99.90;;;;;;4994449;28;20051;-84
2022/05/31 04:34:48;;;;;;;5.75;4.47;;;6.60;99.90;;;;;;4978459;28;20058;-83
2022/05/31 04:37:35;;;;;;;4.97;4.47;;;6.50;99.90;;;;;;4975082;28;20425;-87
2022/05/31 04:40:32;;;;;;;7.50;4.75;;;6.50;99.90;;;;;;4974000;28;20078;-83
2022/05/31 04:43:24;;;;;;;8.38;4.55;;;6.50;99.90;;;;;;4969397;28;20167;-90
2022/05/31 04:46:15;;;;;;;7.10;4.57;;;6.70;99.90;;;;;;4984872;28;20070;-88
2022/05/31 04:49:03;;;;;;;9.07;4.50;;;6.90;99.90;;;;;;4978680;28;20082;-89
2022/05/31 04:51:54;;;;;;;5.70;4.75;;;7.10;99.90;;;;;;4975235;28;20069;-88
2022/05/31 04:54:58;;;;;;;7.03;4.20;;;7.30;99.90;;;;;;4969566;28;20050;-88
2022/05/31 04:57:45;;;;;;;7.25;4.55;;;7.50;99.90;;;;;;4978484;28;20074;-86
2022/05/31 05:00:37;;;;;;;7.00;4.55;;;7.60;99.90;;;;;;4971515;28;20481;-86
2022/05/31 05:03:29;;;;;;;6.97;4.63;;;7.70;99.90;;;;;;4985516;28;20114;-87
2022/05/31 05:06:20;;;;;;;6.93;4.93;;;7.90;99.90;;;;;;4977189;28;20369;-88
2022/05/31 05:09:13;;;;;;;4.07;3.70;;;8.10;99.90;;;;;;4970195;28;20500;-84
2022/05/31 05:12:00;;;;;;;5.50;4.25;;;8.30;99.90;;;;;;4976622;28;20050;-87
2022/05/31 05:14:47;;;;;;;6.55;4.05;;;8.50;99.90;;;;;;4973445;28;20471;-88
2022/05/31 05:17:36;;;;;;;9.77;3.88;;;8.80;99.90;;;;;;4979080;28;20054;-85
2022/05/31 05:20:23;;;;;;;6.53;4.13;;;8.90;99.90;;;;;;4972762;28;20050;-86
2022/05/31 05:23:11;;;;;;;6.47;4.03;;;9.00;99.90;;;;;;4974461;28;20113;-85
2022/05/31 05:25:59;;;;;;;4.82;4.03;;;9.10;99.90;;;;;;4977662;28;20117;-86
2022/05/31 05:31:57;;;;;;;6.88;3.63;;;9.50;99.90;;;;;;4975143;28;20123;-85
2022/05/31 05:34:52;;;;;;;6.45;4.35;;;9.80;99.90;;;;;;4971897;28;20039;-84
2022/05/31 05:37:39;;;;;;;6.72;4.50;;;10.10;99.90;;;;;;4975860;28;20329;-88
2022/05/31 05:40:27;;;;;;;7.18;4.30;;;10.30;99.90;;;;;;4975202;28;20457;-87
2022/05/31 05:43:14;;;;;;;5.85;4.18;;;10.30;99.90;;;;;;4976830;28;20444;-89
2022/05/31 05:46:10;;;;;;;10.10;4.35;;;10.20;99.90;;;;;;4972623;28;20178;-87
2022/05/31 05:48:57;;;;;;;7.63;3.28;;;10.30;99.90;;;;;;4979551;28;20178;-88
2022/05/31 05:51:46;;;;;;;6.85;3.85;;;10.40;99.90;;;;;;4974104;28;20051;-88
2022/05/31 05:54:36;;;;;;;5.40;3.67;;;10.50;99.90;;;;;;4976242;28;20101;-89
2022/05/31 05:57:23;;;;;;;6.07;3.80;;;10.80;99.90;;;;;;4975627;28;20050;-85
2022/05/31 06:00:11;;;;;;;7.07;3.50;;;11.20;99.90;;;;;;4977205;28;20137;-88
2022/05/31 06:03:12;;;;;;;5.07;3.42;;;11.50;99.90;;;;;;4978871;28;20047;-87
2022/05/31 06:06:00;;;;;;;7.38;3.75;;;11.70;99.90;;;;;;4977116;28;20050;-89
2022/05/31 06:09:01;;;;;;;4.93;3.47;;;12.00;99.90;;;;;;4980906;28;20053;-87
2022/05/31 06:12:03;;;;;;;4.80;2.60;;;12.20;99.90;;;;;;4977499;28;20195;-88
2022/05/31 06:14:58;;;;;;;4.25;2.75;;;12.40;99.90;;;;;;4982779;28;20061;-84
2022/05/31 06:17:51;;;;;;;2.83;2.47;;;12.50;99.90;;;;;;4980229;28;20129;-88
2022/05/31 06:20:42;;;;;;;3.03;2.25;;;12.60;99.90;;;;;;4974583;28;20118;-89
2022/05/31 06:23:29;;;;;;;3.47;2.05;;;12.80;99.90;;;;;;4974770;28;20039;-88
2022/05/31 06:26:20;;;;;;;6.05;2.25;;;13.10;99.90;;;;;;4982366;28;20050;-84
2022/05/31 06:29:11;;;;;;;4.95;2.53;;;13.20;99.90;;;;;;4979449;28;20093;-87
2022/05/31 06:32:01;;;;;;;5.38;2.72;;;13.30;99.90;;;;;;4988752;28;20066;-88
2022/05/31 06:34:49;;;;;;;4.70;2.45;;;13.70;99.90;;;;;;4993260;28;20051;-83
2022/05/31 06:37:36;;;;;;;3.03;2.25;;;14.10;99.90;;;;;;4988403;28;20412;-85
2022/05/31 06:40:26;;;;;;;4.88;2.67;;;14.30;99.90;;;;;;4983464;28;20053;-85
2022/05/31 06:43:16;;;;;;;4.40;3.25;;;14.20;99.90;;;;;;4986127;28;20047;-84
2022/05/31 06:46:10;;;;;;;6.57;3.03;;;13.80;99.90;;;;;;4974269;28;20062;-84
2022/05/31 06:48:59;;;;;;;4.65;2.97;;;13.80;99.90;;;;;;4974188;28;20047;-87
2022/05/31 06:57:59;;;;;;;6.80;2.50;;;14.80;99.90;;;;;;4989314;28;20081;-85
2022/05/31 07:00:55;;;;;;;3.45;2.40;;;15.20;99.90;;;;;;4988456;28;20049;-80
2022/05/31 07:03:45;;;;;;;4.30;2.38;;;15.50;98.40;;;;;;4986364;28;20038;-82
2022/05/31 07:06:33;;;;;;;4.13;2.40;;;15.80;95.90;;;;;;4986512;28;20061;-86
2022/05/31 07:09:27;;;;;;;4.72;2.08;;;16.20;94.30;;;;;;4988534;28;20055;-85
2022/05/31 07:12:14;;;;;;;2.35;1.80;;;16.60;96.40;;;;;;4982100;28;20039;-88
2022/05/31 07:15:10;;;;;;;3.58;2.10;;;17.10;91.40;;;;;;4989416;28;20046;-80
2022/05/31 07:17:59;;;;;;;3.60;2.38;;;16.80;90.10;;;;;;4993738;28;20341;-89
2022/05/31 07:20:48;;;;;;;1.98;1.50;;;16.80;91.60;;;;;;4981804;28;20074;-89
2022/05/31 07:23:40;;;;;;;4.28;1.67;;;17.30;88.30;;;;;;4984687;28;20054;-87
2022/05/31 07:26:28;;;;;;;1.70;1.30;;;17.40;80.10;;;;;;4979794;28;20062;-86
2022/05/31 07:29:23;;;;;;;5.38;1.65;;;17.10;79.70;;;;;;4977620;28;20117;-88
2022/05/31 07:32:11;;;;;;;5.05;1.38;;;17.10;79.60;;;;;;4977069;28;20134;-87
2022/05/31 07:35:20;;;;;;;1.40;1.23;;;17.00;75.70;;;;;;4977515;28;20358;-85
2022/05/31 07:38:09;;;;;;;2.15;1.20;;;16.90;75.70;;;;;;4970108;28;20113;-87
2022/05/31 07:40:59;;;;;;;3.53;1.30;;;16.90;77.20;;;;;;4972081;28;20421;-86
2022/05/31 07:43:46;;;;;;;4.72;1.40;;;17.00;75.10;;;;;;4973345;28;20054;-88
2022/05/31 07:46:36;;;;;;;5.68;1.50;;;17.00;75.20;;;;;;4974881;28;20129;-89
2022/05/31 07:49:25;;;;;;;3.15;1.30;;;16.80;75.40;;;;;;4978938;28;20464;-87
2022/05/31 07:52:16;;;;;;;1.60;1.38;;;17.20;78.60;;;;;;4979587;28;20055;-90
2022/05/31 07:55:04;;;;;;;3.30;1.30;;;17.50;72.50;;;;;;4982438;28;20371;-86
2022/05/31 08:01:06;;;;;;;2.75;1.27;;;17.70;73.60;;;;;;4974392;28;20057;-85
2022/05/31 08:03:55;;;;;;;2.15;1.35;;;18.20;71.40;;;;;;4974083;28;20046;-88
2022/05/31 08:06:48;;;;;;;2.67;1.20;;;18.60;68.00;;;;;;4975035;28;20043;-85
2022/05/31 08:09:36;;;;;;;4.15;1.40;;;18.40;69.70;;;;;;4978772;28;20453;-88
2022/05/31 08:12:23;;;;;;;1.35;1.20;;;18.70;70.00;;;;;;4977380;28;20043;-88
2022/05/31 08:15:11;;;;;;;3.58;1.17;;;19.10;67.20;;;;;;4973120;28;20039;-86
2022/05/31 08:17:58;;;;;;;4.72;1.33;;;19.30;67.00;;;;;;4976618;28;20113;-87
2022/05/31 08:20:46;;;;;;;4.07;1.58;;;19.50;67.00;;;;;;4971133;28;20046;-85
2022/05/31 08:23:34;;;;;;;2.03;1.10;;;20.00;64.00;;;;;;4973725;28;20443;-85
2022/05/31 08:26:24;;;;;;;2.50;1.35;;;19.90;62.50;;;;;;4978111;28;20050;-88
2022/05/31 08:29:12;;;;;;;5.28;1.25;;;19.90;64.10;;;;;;4974933;28;20058;-89
2022/05/31 08:31:59;;;;;;;2.30;1.30;;;20.40;61.70;;;;;;4977462;28;20528;-87
2022/05/31 08:34:48;;;;;;;2.47;1.00;;;20.60;61.20;;;;;;4978672;28;20479;-85
2022/05/31 08:37:36;;;;;;;5.57;1.02;;;21.50;60.40;;;;;;4978848;28;20049;-88
2022/05/31 08:40:24;;;;;;;1.45;1.00;;;22.20;56.30;;;;;;4976300;28;20452;-85
2022/05/31 08:43:14;;;;;;;3.75;1.17;;;21.80;56.80;;;;;;4977319;28;20061;-87
2022/05/31 08:46:12;;;;;;;3.05;1.10;;;21.60;57.70;;;;;;4975439;28;20133;-87
2022/05/31 08:49:18;;;;;;;4.25;1.48;;;22.10;54.00;;;;;;4968294;28;20039;-86
2022/05/31 08:52:15;;;;;;;2.63;1.10;;;21.80;54.20;;;;;;4976475;28;20467;-87
2022/05/31 08:58:35;;;;;;;4.93;1.48;;;22.10;55.60;;;;;;4979180;28;20047;-85
2022/05/31 09:01:27;;;;;;;4.45;1.30;;;23.20;53.30;;;;;;4975983;28;20071;-88
2022/05/31 09:04:24;;;;;;;;;;;23.50;50.40;;;;;;4977718;28;20051;-86
2022/05/31 09:07:30;;;;;;;2.80;1.00;;;22.40;54.90;;;;;;4978227;28;19934;-87
2022/05/31 09:10:38;;;;;;;2.38;1.20;;;23.10;51.80;;;;;;4976059;28;20046;-88
2022/05/31 09:13:49;;;;;;;2.67;1.25;;;22.80;52.60;;;;;;4979226;28;20054;-87
2022/05/31 09:17:18;;;;;;;2.90;1.58;;;22.10;52.40;;;;;;4976954;28;20122;-84
2022/05/31 09:20:10;;;;;;;;;;;21.60;53.40;;;;;;4977192;28;20039;-84
2022/05/31 09:23:00;;;;;;;4.10;1.30;;;21.70;54.70;;;;;;4980094;28;19922;-86
2022/05/31 09:25:58;;;;;;;3.70;1.27;;;22.40;53.70;;;;;;4978970;28;20057;-87
2022/05/31 09:29:00;;;;;;;4.68;1.20;;;22.60;52.80;;;;;;4979802;28;20507;-87
2022/05/31 09:32:02;;;;;;;3.00;1.30;;;22.30;52.40;;;;;;4976118;28;20058;-85
2022/05/31 09:35:45;;;;;;;3.05;1.17;;;22.10;52.70;;;;;;4976207;28;20057;-86
2022/05/31 09:38:51;;;;;;;2.65;1.40;;;21.60;54.00;;;;;;4923764;29;20043;-86
2022/05/31 09:41:50;;;;;;;4.55;1.70;;;21.00;55.20;;;;;;4936161;29;20070;-83
2022/05/31 09:44:57;;;;;;;3.47;1.25;;;21.50;56.10;;;;;;4976483;28;20070;-84
2022/05/31 09:47:45;;;;;;;3.67;1.10;;;21.50;55.60;;;;;;4987195;28;20055;-85
2022/05/31 09:50:32;;;;;;;5.00;1.15;;;21.60;56.70;;;;;;4981694;28;20122;-85
2022/05/31 09:59:48;;;;;;;4.72;1.38;;;23.50;50.10;;;;;;4974750;28;20061;-87
2022/05/31 10:02:36;;;;;;;3.70;1.17;;;24.40;47.70;;;;;;4969388;28;20158;-86
2022/05/31 10:05:24;;;;;;;3.00;0.98;;;26.10;46.20;;;;;;4965772;28;20047;-87
2022/05/31 10:08:37;;;;;;;2.10;1.08;;;26.60;44.20;;;;;;4971675;28;20046;-83
2022/05/31 10:11:37;;;;;;;3.38;0.95;;;26.00;43.70;;;;;;4968673;28;20059;-83
2022/05/31 10:14:32;;;;;;;2.95;0.98;;;25.20;42.50;;;;;;4974001;28;20376;-86
2022/05/31 10:17:54;;;;;;;3.75;1.23;;;25.10;43.60;;;;;;4967578;28;20118;-82
2022/05/31 10:21:02;;;;;;;5.05;1.30;;;25.90;40.20;;;;;;4965554;28;20046;-84
2022/05/31 10:23:49;;;;;;;2.28;1.13;;;26.30;40.80;;;;;;4966267;28;20153;-85
2022/05/31 10:26:38;;;;;;;5.22;1.30;;;25.80;38.80;;;;;;4970136;28;20046;-85
2022/05/31 10:29:29;;;;;;;4.32;0.88;;;25.00;37.30;;;;;;4970480;28;20085;-84
2022/05/31 10:32:33;;;;;;;2.40;0.90;;;25.30;41.80;;;;;;4974422;28;20073;-87
2022/05/31 10:35:27;;;;;;;4.50;0.93;;;24.80;41.00;;;;;;4967392;28;20074;-84
2022/05/31 10:38:18;;;;;;;8.25;1.50;;;25.20;39.50;;;;;;4976111;28;20042;-84
2022/05/31 10:41:09;;;;;;;3.28;1.10;;;25.10;39.80;;;;;;4971199;28;20072;-85
2022/05/31 10:44:05;;;;;;;4.57;1.30;;;24.50;43.30;;;;;;4972520;28;20053;-84
2022/05/31 10:47:03;;;;;;;5.00;1.10;;;24.40;45.00;;;;;;4971186;28;20483;-84
2022/05/31 10:49:51;;;;;;;4.68;1.15;;;25.00;45.70;;;;;;4971120;28;20066;-84
2022/05/31 10:52:58;;;;;;;2.47;1.20;;;25.90;45.90;;;;;;4952651;28;20201;-83
2022/05/31 10:56:02;;;;;;;1.58;1.08;;;25.20;41.90;;;;;;4972087;28;20580;-83
2022/05/31 10:59:17;;;;;;;8.57;1.60;;;25.20;49.10;;;;;;4967525;28;20145;-83
2022/05/31 11:02:47;;;;;;;5.43;1.50;;;25.60;50.30;;;;;;4983010;28;20078;-84
2022/05/31 11:06:35;;;;;;;3.75;1.30;;;26.90;48.20;;;;;;4980114;28;20046;-84
2022/05/31 11:12:42;;;;;;;3.15;1.00;;;28.40;43.80;;;;;;4973818;28;20070;-85
2022/05/31 11:15:56;;;;;;;2.00;1.00;;;28.40;43.00;;;;;;4985073;28;20340;-83
2022/05/31 11:19:01;;;;;;;3.63;1.33;;;27.50;43.50;;;;;;4970215;28;20082;-81
2022/05/31 11:22:16;;;;;;;4.28;1.50;;;27.60;45.00;;;;;;4979559;28;20043;-85
2022/05/31 11:25:10;;;;;;;3.88;1.02;;;28.00;44.40;;;;;;4969518;28;20047;-83
2022/05/31 11:28:09;;;;;;;2.75;1.13;;;29.00;37.80;;;;;;4963468;28;20126;-84
2022/05/31 11:31:08;;;;;;;4.45;1.20;;;28.50;37.90;;;;;;4965237;28;20073;-83
2022/05/31 11:34:10;;;;;;;3.90;1.17;;;27.80;38.60;;;;;;4964942;28;20038;-83
2022/05/31 11:37:17;;;;;;;6.35;1.17;;;29.30;44.70;;;;;;4970870;28;20092;-82
2022/05/31 11:40:30;;;;;;;4.30;1.25;;;30.40;40.50;;;;;;4967426;28;20051;-83
2022/05/31 11:43:42;;;;;;;4.38;1.05;;;31.50;38.20;;;;;;4965852;28;20066;-83
2022/05/31 11:46:51;;;;;;;5.25;1.00;;;31.90;35.30;;;;;;4965326;28;20514;-83
2022/05/31 11:49:50;;;;;;;4.95;1.23;;;32.10;35.40;;;;;;4973146;28;20460;-83
2022/05/31 11:53:16;;;;;;;3.38;0.98;;;31.80;36.50;;;;;;4958209;28;20039;-84
2022/05/31 11:56:38;;;;;;;2.75;1.20;;;32.80;36.30;;;;;;4962422;28;20046;-82
2022/05/31 11:59:48;;;;;;;1.83;1.00;;;31.60;32.20;;;;;;4967364;28;20136;-82
2022/05/31 12:02:49;;;;;;;2.97;1.35;;;29.20;37.50;;;;;;4966599;28;20165;-82
2022/05/31 12:05:45;;;;;;;3.25;1.08;;;27.90;39.80;;;;;;4972109;28;20074;-84
2022/05/31 12:08:45;;;;;;;4.78;1.35;;;27.80;42.60;;;;;;4974796;28;20122;-83
2022/05/31 12:11:40;;;;;;;3.50;1.33;;;28.90;36.90;;;;;;4973094;28;20476;-81
2022/05/31 12:14:35;;;;;;;6.95;1.23;;;28.60;40.40;;;;;;4973607;28;20106;-82
2022/05/31 12:17:38;;;;;;;4.32;1.40;;;28.80;42.40;;;;;;4972566;28;20504;-83
2022/05/31 12:20:48;;;;;;;2.45;0.90;;;29.40;39.10;;;;;;4971327;28;20121;-84
2022/05/31 12:24:01;;;;;;;2.92;1.10;;;30.50;37.90;;;;;;4975864;28;20081;-83
2022/05/31 12:27:10;;;;;;;5.03;1.23;;;31.00;37.20;;;;;;4971011;28;20093;-84
2022/05/31 12:30:07;;;;;;;3.45;1.20;;;31.30;34.10;;;;;;4967466;28;20134;-83
2022/05/31 12:32:54;;;;;;;3.25;1.13;;;30.10;37.10;;;;;;4970146;28;20193;-83
2022/05/31 12:35:48;;;;;;;3.53;1.00;;;28.40;39.00;;;;;;4975640;28;20051;-85
2022/05/31 12:39:00;;;;;;;5.38;1.10;;;27.60;41.60;;;;;;4975969;28;20066;-84
2022/05/31 12:41:50;;;;;;;1.98;1.17;;;27.10;40.70;;;;;;4968961;28;20042;-84
2022/05/31 12:44:38;;;;;;;3.72;0.90;;;27.50;43.40;;;;;;4972766;28;20070;-84
2022/05/31 12:47:31;;;;;;;2.20;1.17;;;26.70;41.40;;;;;;4972175;28;20051;-83
2022/05/31 12:50:56;;;;;;;4.72;1.45;;;26.60;39.80;;;;;;4974279;28;20750;-81
2022/05/31 12:53:59;;;;;;;5.70;1.30;;;26.70;43.60;;;;;;4974542;28;20058;-83
2022/05/31 12:56:56;;;;;;;2.95;1.35;;;26.60;39.00;;;;;;4965150;28;20393;-84
2022/05/31 13:00:08;;;;;;;1.88;1.00;;;27.50;39.80;;;;;;4973374;28;20354;-82
2022/05/31 13:02:57;;;;;;;4.00;0.90;;;29.30;35.50;;;;;;4971092;28;20039;-86
2022/05/31 13:06:08;;;;;;;2.95;0.88;;;31.10;35.60;;;;;;4974296;28;20432;-84
2022/05/31 13:09:13;;;;;;;10.02;1.50;;;32.00;34.30;;;;;;4963543;28;20092;-83
2022/05/31 13:21:33;;;;;;;3.30;1.05;;;33.40;30.20;;;;;;4975024;28;20372;-87
2022/05/31 13:25:12;;;;;;;1.58;0.88;;;33.60;29.20;;;;;;4978663;28;20146;-87
2022/05/31 13:28:02;;;;;;;2.88;1.30;;;34.90;30.30;;;;;;4994896;28;20046;-89
2022/05/31 13:30:55;;;;;;;9.68;2.10;;;35.10;29.50;;;;;;4977166;28;20043;-89
2022/05/31 13:33:55;;;;;;;2.17;1.20;;;33.30;27.80;;;;;;4986431;28;20065;-88
2022/05/31 13:36:45;;;;;;;5.78;0.80;;;31.90;31.50;;;;;;4981071;28;20056;-86
2022/05/31 13:39:42;;;;;;;3.38;1.10;;;32.20;31.40;;;;;;4984954;28;20066;-84
2022/05/31 13:42:36;;;;;;;3.55;1.40;;;32.10;29.50;;;;;;4977906;28;20034;-87
2022/05/31 13:45:27;;;;;;;5.50;1.10;;;31.10;29.80;;;;;;4988815;28;20043;-88
2022/05/31 13:48:21;;;;;;;1.80;1.00;;;30.40;31.00;;;;;;4988577;28;20094;-82
2022/05/31 13:51:17;;;;;;;3.08;1.10;;;28.50;33.40;;;;;;4973643;28;20054;-86
2022/05/31 13:54:16;;;;;;;3.65;1.00;;;27.80;36.00;;;;;;4986626;28;20085;-92
2022/05/31 13:57:05;;;;;;;4.80;1.17;;;27.30;34.60;;;;;;4979466;28;20058;-86
2022/05/31 14:00:03;;;;;;;7.65;1.30;;;26.80;39.00;;;;;;4964171;28;20075;-85
2022/05/31 14:03:05;;;;;;;4.32;1.25;;;26.50;40.30;;;;;;4960988;28;20427;-86
2022/05/31 14:06:12;;;;;;;8.20;1.80;;;27.50;37.50;;;;;;4970655;28;20540;-83
2022/05/31 14:09:07;;;;;;;6.47;1.20;;;28.60;35.90;;;;;;4972507;28;20071;-87
2022/05/31 14:11:59;;;;;;;3.08;1.08;;;29.60;33.50;;;;;;4972706;28;20412;-87
2022/05/31 14:14:48;;;;;;;2.30;1.13;;;30.20;33.80;;;;;;4969808;28;20060;-88
2022/05/31 14:17:39;;;;;;;5.07;1.35;;;30.00;34.90;;;;;;4972480;28;20133;-87
2022/05/31 14:20:30;;;;;;;4.13;1.03;;;29.50;36.80;;;;;;4971661;28;20050;-86
2022/05/31 14:23:17;;;;;;;4.28;1.00;;;27.80;36.70;;;;;;4974503;28;20042;-88
2022/05/31 14:26:06;;;;;;;4.50;1.20;;;27.10;36.40;;;;;;4981560;28;20051;-86
2022/05/31 14:29:27;;;;;;;3.85;1.08;;;26.20;37.30;;;;;;4976939;28;20039;-86
2022/05/31 14:32:25;;;;;;;4.57;1.20;;;25.40;40.10;;;;;;4979021;28;20050;-85
2022/05/31 14:35:26;;;;;;;3.80;1.10;;;24.90;41.10;;;;;;4966405;28;20047;-85
2022/05/31 14:38:34;;;;;;;2.55;1.23;;;24.70;38.60;;;;;;4974265;28;20129;-89
2022/05/31 14:41:40;;;;;;;4.10;1.27;;;24.10;42.00;;;;;;4975209;28;20043;-85
2022/05/31 14:44:42;;;;;;;2.22;1.40;;;24.00;42.90;;;;;;4960978;28;20321;-86
2022/05/31 14:47:31;;;;;;;3.95;1.25;;;23.90;42.00;;;;;;4961751;28;20481;-88
2022/05/31 14:50:31;;;;;;;5.53;1.88;;;23.20;44.10;;;;;;4967477;28;20084;-86
2022/05/31 14:53:19;;;;;;;2.40;1.23;;;22.90;45.00;;;;;;4945169;29;20096;-87
2022/05/31 14:56:25;;;;;;;7.07;1.17;;;22.60;47.40;;;;;;4973970;28;20045;-84
2022/05/31 14:59:31;;;;;;;2.00;1.00;;;22.10;45.20;;;;;;4967045;28;20102;-83
2022/05/31 15:02:22;;;;;;;4.28;1.20;;;21.70;47.90;;;;;;4973158;28;20437;-86
2022/05/31 15:05:20;;;;;;;6.55;1.38;;;21.40;45.00;;;;;;4971537;28;20138;-84
2022/05/31 15:08:08;;;;;;;4.57;1.42;;;21.10;48.40;;;;;;4975140;28;20043;-86
2022/05/31 15:18:56;;;;;;;3.92;1.52;;;20.80;48.40;;;;;;4973973;28;20055;-86
2022/05/31 15:20:24;;;;;;;2.88;1.13;;;19.90;51.50;;;;;;4964667;28;20487;-84
2022/05/31 15:23:22;;;;;;;5.40;1.27;;;19.80;50.70;;;;;;4976205;28;20047;-87
2022/05/31 15:26:15;;;;;;;4.95;1.42;;;19.70;52.20;;;;;;4980827;28;20074;-83
2022/05/31 15:29:03;;;;;;;4.03;1.45;;;19.60;50.10;;;;;;4978328;28;20051;-85
2022/05/31 15:31:56;;;;;;;;;;;19.40;52.70;;;;;;4987448;28;20051;-84
2022/05/31 15:34:52;;;;;;;2.80;1.25;;;19.30;50.10;;;;;;4967498;28;20031;-86
2022/05/31 15:37:39;;;;;;;5.03;1.48;;;19.20;52.40;;;;;;4977023;28;20053;-84
2022/05/31 15:40:28;;;;;;;2.45;1.48;;;19.20;52.40;;;;;;4980937;28;20035;-84
2022/05/31 15:43:51;;;;;;;2.85;1.25;;;19.10;52.30;;;;;;4982827;28;20051;-83
2022/05/31 15:46:26;;;;;;;3.20;1.63;;;19.00;52.00;;;;;;4977320;28;20035;-85
2022/05/31 15:49:15;;;;;;;5.95;1.35;;;18.90;52.90;;;;;;4978716;28;20062;-83
2022/05/31 15:52:31;;;;;;;5.75;1.63;;;18.80;54.10;;;;;;4992441;28;20113;-83
2022/05/31 15:55:23;;;;;;;4.40;1.50;;;18.80;53.80;;;;;;4985150;28;20051;-84
2022/05/31 15:58:12;;;;;;;;;;;18.80;53.60;;;;;;4980534;28;20042;-85
2022/05/31 16:01:01;;;;;;;4.95;2.88;;;18.80;54.10;;;;;;4984431;28;19930;-84
2022/05/31 16:03:51;;;;;;;3.95;1.88;;;18.70;54.30;;;;;;4977414;28;20467;-84
2022/05/31 16:06:41;;;;;;;2.83;2.00;;;18.70;53.60;;;;;;4963984;28;20050;-83
2022/05/31 16:09:31;;;;;;;5.30;1.90;;;18.80;54.00;;;;;;4972042;28;20039;-84
2022/05/31 16:12:25;;;;;;;3.92;1.85;;;18.80;54.30;;;;;;4979797;28;20495;-84
2022/05/31 16:15:12;;;;;;;3.78;2.08;;;19.00;53.40;;;;;;4964492;28;20153;-85
2022/05/31 16:18:00;;;;;;;4.22;2.10;;;19.20;53.80;;;;;;4979960;28;20412;-85
2022/05/31 16:20:48;;;;;;;5.60;2.78;;;19.30;53.10;;;;;;4983010;28;20047;-84
2022/05/31 16:23:36;;;;;;;3.20;2.40;;;19.50;54.20;;;;;;4977801;28;20145;-85
2022/05/31 16:26:24;;;;;;;4.38;2.45;;;19.60;54.20;;;;;;4981447;28;20047;-85
2022/05/31 16:29:12;;;;;;;3.10;1.73;;;19.70;54.90;;;;;;4979486;28;20061;-84